sensor_id;sensor_type;location;lat;lon;timestamp;P1;durP1;ratioP1;P2;durP2;ratioP2
41927;SDS011;27616;51.420;6.788;2023-02-28T00:00:34;12.37;;;5.30;;
41927;SDS011;27616;51.420;6.788;2023-02-28T00:03:01;14.13;;;5.37;;
41927;SDS011;27616;51.420;6.788;2023-02-28T00:05:27;11.67;;;5.00;;
41927;SDS011;27616;51.420;6.788;2023-02-28T00:07:53;13.47;;;5.30;;
41927;SDS011;27616;51.420;6.788;2023-02-28T00:10:21;14.10;;;5.30;;
41927;SDS011;27616;51.420;6.788;2023-02-28T00:12:49;15.43;;;5.85;;
41927;SDS011;27616;51.420;6.788;2023-02-28T00:15:16;10.30;;;5.17;;
41927;SDS011;27616;51.420;6.788;2023-02-28T00:17:43;16.63;;;5.53;;
41927;SDS011;27616;51.420;6.788;2023-02-28T00:20:10;11.10;;;5.50;;
41927;SDS011;27616;51.420;6.788;2023-02-28T00:22:44;10.97;;;5.77;;
41927;SDS011;27616;51.420;6.788;2023-02-28T00:25:12;14.23;;;5.63;;
41927;SDS011;27616;51.420;6.788;2023-02-28T00:27:39;9.97;;;5.53;;
41927;SDS011;27616;51.420;6.788;2023-02-28T00:30:06;14.17;;;5.37;;
41927;SDS011;27616;51.420;6.788;2023-02-28T00:32:36;9.87;;;5.10;;
41927;SDS011;27616;51.420;6.788;2023-02-28T00:35:02;9.90;;;5.13;;
41927;SDS011;27616;51.420;6.788;2023-02-28T00:37:28;11.53;;;5.13;;
41927;SDS011;27616;51.420;6.788;2023-02-28T00:39:55;11.47;;;5.20;;
41927;SDS011;27616;51.420;6.788;2023-02-28T00:42:21;10.87;;;5.20;;
41927;SDS011;27616;51.420;6.788;2023-02-28T00:44:47;9.53;;;5.40;;
41927;SDS011;27616;51.420;6.788;2023-02-28T00:47:13;12.57;;;5.20;;
41927;SDS011;27616;51.420;6.788;2023-02-28T00:49:39;10.73;;;5.10;;
41927;SDS011;27616;51.420;6.788;2023-02-28T00:52:05;11.23;;;5.23;;
41927;SDS011;27616;51.420;6.788;2023-02-28T00:54:31;12.87;;;5.57;;
41927;SDS011;27616;51.420;6.788;2023-02-28T00:56:57;14.20;;;5.43;;
41927;SDS011;27616;51.420;6.788;2023-02-28T00:59:24;10.47;;;5.20;;
41927;SDS011;27616;51.420;6.788;2023-02-28T01:01:49;14.13;;;5.77;;
41927;SDS011;27616;51.420;6.788;2023-02-28T01:04:15;12.60;;;5.13;;
41927;SDS011;27616;51.420;6.788;2023-02-28T01:06:41;11.43;;;5.40;;
41927;SDS011;27616;51.420;6.788;2023-02-28T01:09:09;9.93;;;5.10;;
41927;SDS011;27616;51.420;6.788;2023-02-28T01:11:35;10.80;;;5.37;;
41927;SDS011;27616;51.420;6.788;2023-02-28T01:14:01;13.53;;;5.20;;
41927;SDS011;27616;51.420;6.788;2023-02-28T01:16:27;12.47;;;5.53;;
41927;SDS011;27616;51.420;6.788;2023-02-28T01:18:53;12.47;;;5.40;;
41927;SDS011;27616;51.420;6.788;2023-02-28T01:21:19;13.33;;;4.93;;
41927;SDS011;27616;51.420;6.788;2023-02-28T01:23:46;13.37;;;5.10;;
41927;SDS011;27616;51.420;6.788;2023-02-28T01:26:21;12.37;;;5.70;;
41927;SDS011;27616;51.420;6.788;2023-02-28T01:28:48;9.80;;;4.83;;
41927;SDS011;27616;51.420;6.788;2023-02-28T01:31:15;8.57;;;4.57;;
41927;SDS011;27616;51.420;6.788;2023-02-28T01:33:41;12.23;;;5.27;;
41927;SDS011;27616;51.420;6.788;2023-02-28T01:36:10;8.40;;;4.70;;
41927;SDS011;27616;51.420;6.788;2023-02-28T01:38:38;11.20;;;4.63;;
41927;SDS011;27616;51.420;6.788;2023-02-28T01:41:04;11.13;;;4.07;;
41927;SDS011;27616;51.420;6.788;2023-02-28T01:43:35;9.97;;;4.20;;
41927;SDS011;27616;51.420;6.788;2023-02-28T01:46:19;9.03;;;4.60;;
41927;SDS011;27616;51.420;6.788;2023-02-28T01:48:46;9.07;;;4.13;;
41927;SDS011;27616;51.420;6.788;2023-02-28T01:54:12;8.80;;;4.23;;
41927;SDS011;27616;51.420;6.788;2023-02-28T01:56:53;9.17;;;3.87;;
41927;SDS011;27616;51.420;6.788;2023-02-28T01:59:54;10.57;;;4.43;;
41927;SDS011;27616;51.420;6.788;2023-02-28T02:02:23;7.30;;;3.80;;
41927;SDS011;27616;51.420;6.788;2023-02-28T02:04:54;9.50;;;4.10;;
41927;SDS011;27616;51.420;6.788;2023-02-28T02:07:26;7.37;;;3.63;;
41927;SDS011;27616;51.420;6.788;2023-02-28T02:10:41;11.73;;;4.17;;
41927;SDS011;27616;51.420;6.788;2023-02-28T02:12:55;8.37;;;3.90;;
41927;SDS011;27616;51.420;6.788;2023-02-28T02:15:34;10.20;;;4.00;;
41927;SDS011;27616;51.420;6.788;2023-02-28T02:18:10;8.90;;;3.87;;
41927;SDS011;27616;51.420;6.788;2023-02-28T02:21:15;6.77;;;3.17;;
41927;SDS011;27616;51.420;6.788;2023-02-28T02:35:43;11.13;;;4.10;;
41927;SDS011;27616;51.420;6.788;2023-02-28T02:41:06;11.10;;;3.87;;
41927;SDS011;27616;51.420;6.788;2023-02-28T02:43:46;8.07;;;3.60;;
41927;SDS011;27616;51.420;6.788;2023-02-28T02:46:27;9.80;;;3.87;;
41927;SDS011;27616;51.420;6.788;2023-02-28T02:48:57;7.73;;;3.70;;
41927;SDS011;27616;51.420;6.788;2023-02-28T02:51:26;7.20;;;2.85;;
41927;SDS011;27616;51.420;6.788;2023-02-28T02:54:06;7.72;;;3.55;;
41927;SDS011;27616;51.420;6.788;2023-02-28T02:56:39;8.97;;;3.37;;
41927;SDS011;27616;51.420;6.788;2023-02-28T02:59:08;11.80;;;4.05;;
41927;SDS011;27616;51.420;6.788;2023-02-28T03:01:37;9.53;;;4.40;;
41927;SDS011;27616;51.420;6.788;2023-02-28T03:04:07;10.52;;;3.83;;
41927;SDS011;27616;51.420;6.788;2023-02-28T03:06:37;10.03;;;3.90;;
41927;SDS011;27616;51.420;6.788;2023-02-28T03:09:03;8.80;;;3.80;;
41927;SDS011;27616;51.420;6.788;2023-02-28T03:11:29;8.80;;;3.80;;
41927;SDS011;27616;51.420;6.788;2023-02-28T03:25:17;7.33;;;3.23;;
41927;SDS011;27616;51.420;6.788;2023-02-28T03:30:52;9.70;;;3.03;;
41927;SDS011;27616;51.420;6.788;2023-02-28T03:33:24;6.23;;;3.03;;
41927;SDS011;27616;51.420;6.788;2023-02-28T03:35:59;8.67;;;3.70;;
41927;SDS011;27616;51.420;6.788;2023-02-28T03:41:05;6.77;;;3.33;;
41927;SDS011;27616;51.420;6.788;2023-02-28T03:43:38;7.50;;;3.80;;
41927;SDS011;27616;51.420;6.788;2023-02-28T03:46:08;7.85;;;3.30;;
41927;SDS011;27616;51.420;6.788;2023-02-28T03:48:40;7.03;;;3.33;;
41927;SDS011;27616;51.420;6.788;2023-02-28T03:51:14;11.43;;;3.50;;
41927;SDS011;27616;51.420;6.788;2023-02-28T03:53:44;9.33;;;3.50;;
41927;SDS011;27616;51.420;6.788;2023-02-28T03:56:21;6.73;;;3.37;;
41927;SDS011;27616;51.420;6.788;2023-02-28T04:01:49;11.33;;;4.03;;
41927;SDS011;27616;51.420;6.788;2023-02-28T04:04:17;8.80;;;4.00;;
41927;SDS011;27616;51.420;6.788;2023-02-28T04:06:43;10.37;;;4.00;;
41927;SDS011;27616;51.420;6.788;2023-02-28T04:09:11;13.30;;;4.60;;
41927;SDS011;27616;51.420;6.788;2023-02-28T04:14:06;9.47;;;4.43;;
41927;SDS011;27616;51.420;6.788;2023-02-28T04:16:33;10.50;;;4.23;;
41927;SDS011;27616;51.420;6.788;2023-02-28T04:19:02;9.07;;;4.13;;
41927;SDS011;27616;51.420;6.788;2023-02-28T04:21:43;8.80;;;4.00;;
41927;SDS011;27616;51.420;6.788;2023-02-28T04:24:11;8.00;;;4.00;;
41927;SDS011;27616;51.420;6.788;2023-02-28T04:26:40;11.20;;;4.20;;
41927;SDS011;27616;51.420;6.788;2023-02-28T04:29:09;9.57;;;3.95;;
41927;SDS011;27616;51.420;6.788;2023-02-28T04:31:37;8.73;;;4.27;;
41927;SDS011;27616;51.420;6.788;2023-02-28T04:34:03;8.50;;;4.23;;
41927;SDS011;27616;51.420;6.788;2023-02-28T04:36:29;12.07;;;4.10;;
41927;SDS011;27616;51.420;6.788;2023-02-28T04:38:55;9.70;;;4.70;;
41927;SDS011;27616;51.420;6.788;2023-02-28T04:41:21;9.07;;;4.00;;
41927;SDS011;27616;51.420;6.788;2023-02-28T04:43:48;8.83;;;4.13;;
41927;SDS011;27616;51.420;6.788;2023-02-28T04:46:14;8.40;;;4.20;;
41927;SDS011;27616;51.420;6.788;2023-02-28T04:48:40;10.03;;;4.03;;
41927;SDS011;27616;51.420;6.788;2023-02-28T04:51:13;8.23;;;4.10;;
41927;SDS011;27616;51.420;6.788;2023-02-28T04:53:40;11.43;;;4.10;;
41927;SDS011;27616;51.420;6.788;2023-02-28T04:56:08;9.37;;;3.63;;
41927;SDS011;27616;51.420;6.788;2023-02-28T04:58:36;8.93;;;4.15;;
41927;SDS011;27616;51.420;6.788;2023-02-28T05:01:06;8.17;;;4.07;;
41927;SDS011;27616;51.420;6.788;2023-02-28T05:03:42;7.88;;;4.20;;
41927;SDS011;27616;51.420;6.788;2023-02-28T05:06:08;10.37;;;4.23;;
41927;SDS011;27616;51.420;6.788;2023-02-28T05:08:35;9.67;;;4.00;;
41927;SDS011;27616;51.420;6.788;2023-02-28T05:11:01;12.27;;;4.30;;
41927;SDS011;27616;51.420;6.788;2023-02-28T05:13:27;9.77;;;3.67;;
41927;SDS011;27616;51.420;6.788;2023-02-28T05:15:54;9.67;;;3.93;;
41927;SDS011;27616;51.420;6.788;2023-02-28T05:18:20;7.90;;;3.87;;
41927;SDS011;27616;51.420;6.788;2023-02-28T05:20:46;8.77;;;3.70;;
41927;SDS011;27616;51.420;6.788;2023-02-28T05:23:12;8.03;;;3.50;;
41927;SDS011;27616;51.420;6.788;2023-02-28T05:25:38;8.20;;;3.70;;
41927;SDS011;27616;51.420;6.788;2023-02-28T05:28:05;10.33;;;4.00;;
41927;SDS011;27616;51.420;6.788;2023-02-28T05:30:31;11.13;;;3.60;;
41927;SDS011;27616;51.420;6.788;2023-02-28T05:32:57;7.97;;;3.23;;
41927;SDS011;27616;51.420;6.788;2023-02-28T05:35:24;6.97;;;3.20;;
41927;SDS011;27616;51.420;6.788;2023-02-28T05:37:50;9.33;;;3.50;;
41927;SDS011;27616;51.420;6.788;2023-02-28T05:40:16;8.40;;;3.70;;
41927;SDS011;27616;51.420;6.788;2023-02-28T05:42:42;8.20;;;3.93;;
41927;SDS011;27616;51.420;6.788;2023-02-28T05:45:08;10.67;;;3.80;;
41927;SDS011;27616;51.420;6.788;2023-02-28T05:47:34;10.83;;;4.40;;
41927;SDS011;27616;51.420;6.788;2023-02-28T05:50:00;7.77;;;3.40;;
41927;SDS011;27616;51.420;6.788;2023-02-28T05:52:26;7.93;;;2.80;;
41927;SDS011;27616;51.420;6.788;2023-02-28T05:54:52;6.10;;;2.80;;
41927;SDS011;27616;51.420;6.788;2023-02-28T05:57:18;6.70;;;3.10;;
41927;SDS011;27616;51.420;6.788;2023-02-28T05:59:44;7.00;;;3.00;;
41927;SDS011;27616;51.420;6.788;2023-02-28T06:02:13;7.23;;;3.00;;
41927;SDS011;27616;51.420;6.788;2023-02-28T06:04:41;7.40;;;3.00;;
41927;SDS011;27616;51.420;6.788;2023-02-28T06:07:07;6.77;;;3.07;;
41927;SDS011;27616;51.420;6.788;2023-02-28T06:09:34;8.80;;;2.63;;
41927;SDS011;27616;51.420;6.788;2023-02-28T06:12:00;7.40;;;2.73;;
41927;SDS011;27616;51.420;6.788;2023-02-28T06:14:29;6.90;;;2.80;;
41927;SDS011;27616;51.420;6.788;2023-02-28T06:16:56;6.73;;;2.73;;
41927;SDS011;27616;51.420;6.788;2023-02-28T06:19:22;7.83;;;2.70;;
41927;SDS011;27616;51.420;6.788;2023-02-28T06:21:50;11.13;;;3.43;;
41927;SDS011;27616;51.420;6.788;2023-02-28T06:24:20;7.10;;;2.65;;
41927;SDS011;27616;51.420;6.788;2023-02-28T06:26:47;8.20;;;2.90;;
41927;SDS011;27616;51.420;6.788;2023-02-28T06:29:13;11.53;;;2.87;;
41927;SDS011;27616;51.420;6.788;2023-02-28T06:31:46;8.23;;;2.60;;
41927;SDS011;27616;51.420;6.788;2023-02-28T06:34:13;6.80;;;2.63;;
41927;SDS011;27616;51.420;6.788;2023-02-28T06:36:39;7.27;;;2.90;;
41927;SDS011;27616;51.420;6.788;2023-02-28T06:39:06;7.10;;;2.60;;
41927;SDS011;27616;51.420;6.788;2023-02-28T06:41:33;7.10;;;3.00;;
41927;SDS011;27616;51.420;6.788;2023-02-28T06:44:12;8.27;;;2.80;;
41927;SDS011;27616;51.420;6.788;2023-02-28T06:46:40;6.73;;;2.73;;
41927;SDS011;27616;51.420;6.788;2023-02-28T06:49:07;8.97;;;3.00;;
41927;SDS011;27616;51.420;6.788;2023-02-28T06:51:36;8.82;;;3.10;;
41927;SDS011;27616;51.420;6.788;2023-02-28T06:54:06;8.33;;;3.10;;
41927;SDS011;27616;51.420;6.788;2023-02-28T06:56:35;8.95;;;3.00;;
41927;SDS011;27616;51.420;6.788;2023-02-28T06:59:01;7.73;;;3.03;;
41927;SDS011;27616;51.420;6.788;2023-02-28T07:01:28;6.47;;;3.03;;
41927;SDS011;27616;51.420;6.788;2023-02-28T07:03:54;7.27;;;2.97;;
41927;SDS011;27616;51.420;6.788;2023-02-28T07:06:23;7.87;;;3.13;;
41927;SDS011;27616;51.420;6.788;2023-02-28T07:08:50;7.68;;;3.67;;
41927;SDS011;27616;51.420;6.788;2023-02-28T07:11:17;7.83;;;3.17;;
41927;SDS011;27616;51.420;6.788;2023-02-28T07:13:43;7.97;;;3.10;;
41927;SDS011;27616;51.420;6.788;2023-02-28T07:16:09;6.60;;;2.93;;
41927;SDS011;27616;51.420;6.788;2023-02-28T07:18:36;10.13;;;3.13;;
41927;SDS011;27616;51.420;6.788;2023-02-28T07:21:03;9.47;;;3.03;;
41927;SDS011;27616;51.420;6.788;2023-02-28T07:23:31;6.50;;;3.00;;
41927;SDS011;27616;51.420;6.788;2023-02-28T07:25:57;6.87;;;2.87;;
41927;SDS011;27616;51.420;6.788;2023-02-28T07:28:22;6.63;;;2.73;;
41927;SDS011;27616;51.420;6.788;2023-02-28T07:30:48;6.53;;;2.83;;
41927;SDS011;27616;51.420;6.788;2023-02-28T07:33:14;10.57;;;3.13;;
41927;SDS011;27616;51.420;6.788;2023-02-28T07:35:40;8.03;;;2.90;;
41927;SDS011;27616;51.420;6.788;2023-02-28T07:38:06;5.83;;;2.93;;
41927;SDS011;27616;51.420;6.788;2023-02-28T07:40:33;6.83;;;2.73;;
41927;SDS011;27616;51.420;6.788;2023-02-28T07:43:00;8.43;;;3.57;;
41927;SDS011;27616;51.420;6.788;2023-02-28T07:45:26;7.77;;;3.10;;
41927;SDS011;27616;51.420;6.788;2023-02-28T07:47:54;9.70;;;3.50;;
41927;SDS011;27616;51.420;6.788;2023-02-28T07:50:20;10.33;;;3.20;;
41927;SDS011;27616;51.420;6.788;2023-02-28T07:52:46;12.47;;;3.33;;
41927;SDS011;27616;51.420;6.788;2023-02-28T07:55:12;9.60;;;3.30;;
41927;SDS011;27616;51.420;6.788;2023-02-28T07:57:39;8.23;;;2.90;;
41927;SDS011;27616;51.420;6.788;2023-02-28T08:00:06;8.07;;;3.20;;
41927;SDS011;27616;51.420;6.788;2023-02-28T08:02:39;8.67;;;2.80;;
41927;SDS011;27616;51.420;6.788;2023-02-28T08:05:05;7.47;;;2.90;;
41927;SDS011;27616;51.420;6.788;2023-02-28T08:07:31;9.97;;;2.70;;
41927;SDS011;27616;51.420;6.788;2023-02-28T08:09:58;8.47;;;2.93;;
41927;SDS011;27616;51.420;6.788;2023-02-28T08:12:24;8.53;;;2.97;;
41927;SDS011;27616;51.420;6.788;2023-02-28T08:14:50;8.30;;;3.20;;
41927;SDS011;27616;51.420;6.788;2023-02-28T08:17:16;8.20;;;2.57;;
41927;SDS011;27616;51.420;6.788;2023-02-28T08:19:42;7.87;;;3.07;;
41927;SDS011;27616;51.420;6.788;2023-02-28T08:22:10;7.10;;;2.73;;
41927;SDS011;27616;51.420;6.788;2023-02-28T08:24:35;6.07;;;2.67;;
41927;SDS011;27616;51.420;6.788;2023-02-28T08:27:01;8.33;;;2.97;;
41927;SDS011;27616;51.420;6.788;2023-02-28T08:29:27;8.27;;;2.43;;
41927;SDS011;27616;51.420;6.788;2023-02-28T08:31:52;4.90;;;2.33;;
41927;SDS011;27616;51.420;6.788;2023-02-28T08:34:18;4.90;;;2.60;;
41927;SDS011;27616;51.420;6.788;2023-02-28T08:36:44;6.40;;;2.63;;
41927;SDS011;27616;51.420;6.788;2023-02-28T08:39:10;8.23;;;2.67;;
41927;SDS011;27616;51.420;6.788;2023-02-28T08:41:37;6.80;;;2.73;;
41927;SDS011;27616;51.420;6.788;2023-02-28T08:44:02;7.90;;;2.73;;
41927;SDS011;27616;51.420;6.788;2023-02-28T08:46:29;5.37;;;2.27;;
41927;SDS011;27616;51.420;6.788;2023-02-28T08:48:55;6.83;;;2.33;;
41927;SDS011;27616;51.420;6.788;2023-02-28T08:51:25;5.47;;;2.53;;
41927;SDS011;27616;51.420;6.788;2023-02-28T08:53:54;5.93;;;2.80;;
41927;SDS011;27616;51.420;6.788;2023-02-28T08:56:22;6.55;;;2.67;;
41927;SDS011;27616;51.420;6.788;2023-02-28T08:58:49;6.87;;;2.63;;
41927;SDS011;27616;51.420;6.788;2023-02-28T09:01:19;6.50;;;2.70;;
41927;SDS011;27616;51.420;6.788;2023-02-28T09:03:48;5.70;;;2.30;;
41927;SDS011;27616;51.420;6.788;2023-02-28T09:06:16;4.33;;;2.40;;
41927;SDS011;27616;51.420;6.788;2023-02-28T09:08:43;5.55;;;2.22;;
41927;SDS011;27616;51.420;6.788;2023-02-28T09:11:10;7.17;;;2.53;;
41927;SDS011;27616;51.420;6.788;2023-02-28T09:13:36;5.60;;;2.67;;
41927;SDS011;27616;51.420;6.788;2023-02-28T09:16:04;4.50;;;2.20;;
41927;SDS011;27616;51.420;6.788;2023-02-28T09:18:31;6.60;;;1.90;;
41927;SDS011;27616;51.420;6.788;2023-02-28T09:20:58;5.20;;;2.00;;
41927;SDS011;27616;51.420;6.788;2023-02-28T09:23:24;5.00;;;1.90;;
41927;SDS011;27616;51.420;6.788;2023-02-28T09:25:51;4.43;;;2.43;;
41927;SDS011;27616;51.420;6.788;2023-02-28T09:28:19;4.30;;;1.85;;
41927;SDS011;27616;51.420;6.788;2023-02-28T09:30:46;5.33;;;2.20;;
41927;SDS011;27616;51.420;6.788;2023-02-28T09:33:14;5.27;;;2.10;;
41927;SDS011;27616;51.420;6.788;2023-02-28T09:35:40;5.40;;;2.10;;
41927;SDS011;27616;51.420;6.788;2023-02-28T09:38:08;4.20;;;1.80;;
41927;SDS011;27616;51.420;6.788;2023-02-28T09:40:38;3.80;;;1.73;;
41927;SDS011;27616;51.420;6.788;2023-02-28T09:43:12;3.47;;;1.80;;
41927;SDS011;27616;51.420;6.788;2023-02-28T09:45:40;4.67;;;1.93;;
41927;SDS011;27616;51.420;6.788;2023-02-28T09:48:12;6.95;;;2.17;;
41927;SDS011;27616;51.420;6.788;2023-02-28T09:50:52;5.67;;;2.00;;
41927;SDS011;27616;51.420;6.788;2023-02-28T09:53:33;4.30;;;1.73;;
41927;SDS011;27616;51.420;6.788;2023-02-28T09:56:18;4.77;;;1.70;;
41927;SDS011;27616;51.420;6.788;2023-02-28T09:58:53;3.80;;;2.00;;
41927;SDS011;27616;51.420;6.788;2023-02-28T10:07:42;5.07;;;1.90;;
41927;SDS011;27616;51.420;6.788;2023-02-28T10:10:24;3.33;;;1.70;;
41927;SDS011;27616;51.420;6.788;2023-02-28T10:12:58;2.80;;;1.60;;
41927;SDS011;27616;51.420;6.788;2023-02-28T10:15:29;3.13;;;1.75;;
41927;SDS011;27616;51.420;6.788;2023-02-28T10:17:57;4.60;;;1.70;;
41927;SDS011;27616;51.420;6.788;2023-02-28T10:20:28;3.20;;;1.80;;
41927;SDS011;27616;51.420;6.788;2023-02-28T10:23:14;3.47;;;1.77;;
41927;SDS011;27616;51.420;6.788;2023-02-28T10:28:15;3.03;;;1.48;;
41927;SDS011;27616;51.420;6.788;2023-02-28T10:30:43;2.60;;;1.42;;
41927;SDS011;27616;51.420;6.788;2023-02-28T10:33:36;2.85;;;1.50;;
41927;SDS011;27616;51.420;6.788;2023-02-28T10:36:02;8.77;;;2.40;;
41927;SDS011;27616;51.420;6.788;2023-02-28T10:38:36;3.78;;;1.40;;
41927;SDS011;27616;51.420;6.788;2023-02-28T10:41:04;3.67;;;1.52;;
41927;SDS011;27616;51.420;6.788;2023-02-28T10:43:36;4.50;;;2.22;;
41927;SDS011;27616;51.420;6.788;2023-02-28T10:48:38;3.10;;;1.70;;
41927;SDS011;27616;51.420;6.788;2023-02-28T10:51:11;2.67;;;1.40;;
41927;SDS011;27616;51.420;6.788;2023-02-28T10:53:45;3.70;;;1.40;;
41927;SDS011;27616;51.420;6.788;2023-02-28T11:01:43;3.20;;;1.60;;
41927;SDS011;27616;51.420;6.788;2023-02-28T11:04:16;5.20;;;1.57;;
41927;SDS011;27616;51.420;6.788;2023-02-28T11:06:44;3.40;;;1.57;;
41927;SDS011;27616;51.420;6.788;2023-02-28T11:09:25;3.70;;;1.70;;
41927;SDS011;27616;51.420;6.788;2023-02-28T11:11:56;2.93;;;1.47;;
41927;SDS011;27616;51.420;6.788;2023-02-28T11:14:26;3.37;;;1.40;;
41927;SDS011;27616;51.420;6.788;2023-02-28T11:16:54;3.00;;;1.40;;
41927;SDS011;27616;51.420;6.788;2023-02-28T11:19:30;4.30;;;1.50;;
41927;SDS011;27616;51.420;6.788;2023-02-28T11:22:01;2.83;;;1.40;;
41927;SDS011;27616;51.420;6.788;2023-02-28T11:24:29;3.73;;;1.70;;
41927;SDS011;27616;51.420;6.788;2023-02-28T11:26:59;3.03;;;1.23;;
41927;SDS011;27616;51.420;6.788;2023-02-28T11:29:26;2.63;;;1.40;;
41927;SDS011;27616;51.420;6.788;2023-02-28T11:32:13;2.70;;;1.48;;
41927;SDS011;27616;51.420;6.788;2023-02-28T11:34:45;6.63;;;1.60;;
41927;SDS011;27616;51.420;6.788;2023-02-28T11:37:25;2.33;;;1.30;;
41927;SDS011;27616;51.420;6.788;2023-02-28T11:39:52;2.50;;;1.30;;
41927;SDS011;27616;51.420;6.788;2023-02-28T11:42:32;3.67;;;1.43;;
41927;SDS011;27616;51.420;6.788;2023-02-28T11:45:15;4.03;;;1.30;;
41927;SDS011;27616;51.420;6.788;2023-02-28T11:50:45;3.47;;;1.73;;
41927;SDS011;27616;51.420;6.788;2023-02-28T11:56:03;3.47;;;1.45;;
41927;SDS011;27616;51.420;6.788;2023-02-28T12:03:59;3.53;;;1.50;;
41927;SDS011;27616;51.420;6.788;2023-02-28T12:15:14;5.45;;;1.73;;
41927;SDS011;27616;51.420;6.788;2023-02-28T12:21:11;2.90;;;1.83;;
41927;SDS011;27616;51.420;6.788;2023-02-28T12:29:04;9.80;;;6.07;;
41927;SDS011;27616;51.420;6.788;2023-02-28T12:31:38;3.67;;;1.50;;
41927;SDS011;27616;51.420;6.788;2023-02-28T12:34:11;2.87;;;1.37;;
41927;SDS011;27616;51.420;6.788;2023-02-28T12:36:41;3.63;;;1.75;;
41927;SDS011;27616;51.420;6.788;2023-02-28T12:39:11;3.47;;;1.65;;
41927;SDS011;27616;51.420;6.788;2023-02-28T12:41:51;5.82;;;1.55;;
41927;SDS011;27616;51.420;6.788;2023-02-28T12:44:32;3.00;;;1.42;;
41927;SDS011;27616;51.420;6.788;2023-02-28T12:47:14;3.30;;;1.48;;
41927;SDS011;27616;51.420;6.788;2023-02-28T12:52:13;5.75;;;1.88;;
41927;SDS011;27616;51.420;6.788;2023-02-28T13:00:21;4.22;;;1.60;;
41927;SDS011;27616;51.420;6.788;2023-02-28T13:08:48;2.83;;;1.60;;
41927;SDS011;27616;51.420;6.788;2023-02-28T13:14:01;4.32;;;1.52;;
41927;SDS011;27616;51.420;6.788;2023-02-28T13:16:50;3.80;;;1.67;;
41927;SDS011;27616;51.420;6.788;2023-02-28T13:19:20;3.57;;;1.70;;
41927;SDS011;27616;51.420;6.788;2023-02-28T13:21:48;3.17;;;1.60;;
41927;SDS011;27616;51.420;6.788;2023-02-28T13:29:50;3.67;;;1.80;;
41927;SDS011;27616;51.420;6.788;2023-02-28T13:32:33;3.15;;;1.70;;
41927;SDS011;27616;51.420;6.788;2023-02-28T13:37:35;4.93;;;2.20;;
41927;SDS011;27616;51.420;6.788;2023-02-28T13:42:56;4.55;;;2.00;;
41927;SDS011;27616;51.420;6.788;2023-02-28T13:45:22;5.00;;;1.88;;
41927;SDS011;27616;51.420;6.788;2023-02-28T13:47:58;3.13;;;1.73;;
41927;SDS011;27616;51.420;6.788;2023-02-28T14:00:58;5.03;;;2.08;;
41927;SDS011;27616;51.420;6.788;2023-02-28T14:06:13;4.15;;;2.00;;
41927;SDS011;27616;51.420;6.788;2023-02-28T14:08:54;3.38;;;2.05;;
41927;SDS011;27616;51.420;6.788;2023-02-28T14:11:38;4.55;;;2.55;;
41927;SDS011;27616;51.420;6.788;2023-02-28T14:14:06;3.77;;;2.20;;
41927;SDS011;27616;51.420;6.788;2023-02-28T14:16:40;3.93;;;2.10;;
41927;SDS011;27616;51.420;6.788;2023-02-28T14:27:32;6.03;;;2.53;;
41927;SDS011;27616;51.420;6.788;2023-02-28T14:33:22;4.77;;;2.73;;
41927;SDS011;27616;51.420;6.788;2023-02-28T14:38:24;3.93;;;2.20;;
41927;SDS011;27616;51.420;6.788;2023-02-28T14:40:57;6.90;;;2.67;;
41927;SDS011;27616;51.420;6.788;2023-02-28T14:43:26;3.90;;;2.33;;
41927;SDS011;27616;51.420;6.788;2023-02-28T14:45:59;5.70;;;2.47;;
41927;SDS011;27616;51.420;6.788;2023-02-28T14:48:27;4.77;;;2.50;;
41927;SDS011;27616;51.420;6.788;2023-02-28T14:50:54;6.27;;;2.50;;
41927;SDS011;27616;51.420;6.788;2023-02-28T14:53:22;3.40;;;2.33;;
41927;SDS011;27616;51.420;6.788;2023-02-28T14:56:00;4.07;;;2.47;;
41927;SDS011;27616;51.420;6.788;2023-02-28T15:00:57;4.87;;;2.73;;
41927;SDS011;27616;51.420;6.788;2023-02-28T15:05:58;6.37;;;2.47;;
41927;SDS011;27616;51.420;6.788;2023-02-28T15:08:27;4.22;;;2.35;;
41927;SDS011;27616;51.420;6.788;2023-02-28T15:10:58;4.13;;;2.43;;
41927;SDS011;27616;51.420;6.788;2023-02-28T15:16:19;3.63;;;2.20;;
41927;SDS011;27616;51.420;6.788;2023-02-28T15:23:46;4.27;;;2.50;;
41927;SDS011;27616;51.420;6.788;2023-02-28T15:26:22;6.97;;;2.60;;
41927;SDS011;27616;51.420;6.788;2023-02-28T15:28:55;6.37;;;3.10;;
41927;SDS011;27616;51.420;6.788;2023-02-28T15:31:32;5.60;;;2.53;;
41927;SDS011;27616;51.420;6.788;2023-02-28T15:34:06;4.43;;;2.53;;
41927;SDS011;27616;51.420;6.788;2023-02-28T15:36:42;5.87;;;2.57;;
41927;SDS011;27616;51.420;6.788;2023-02-28T15:39:22;4.23;;;2.50;;
41927;SDS011;27616;51.420;6.788;2023-02-28T15:41:49;5.17;;;2.93;;
41927;SDS011;27616;51.420;6.788;2023-02-28T15:44:28;4.57;;;2.30;;
41927;SDS011;27616;51.420;6.788;2023-02-28T15:47:00;4.33;;;2.40;;
41927;SDS011;27616;51.420;6.788;2023-02-28T15:49:44;5.43;;;2.90;;
41927;SDS011;27616;51.420;6.788;2023-02-28T15:52:13;4.67;;;2.43;;
41927;SDS011;27616;51.420;6.788;2023-02-28T15:54:41;6.10;;;2.95;;
41927;SDS011;27616;51.420;6.788;2023-02-28T15:57:20;4.93;;;2.70;;
41927;SDS011;27616;51.420;6.788;2023-02-28T15:59:55;7.03;;;2.50;;
41927;SDS011;27616;51.420;6.788;2023-02-28T16:02:31;7.10;;;2.80;;
41927;SDS011;27616;51.420;6.788;2023-02-28T16:07:38;7.17;;;3.07;;
41927;SDS011;27616;51.420;6.788;2023-02-28T16:10:05;4.77;;;2.60;;
41927;SDS011;27616;51.420;6.788;2023-02-28T16:12:35;7.43;;;2.72;;
41927;SDS011;27616;51.420;6.788;2023-02-28T16:15:03;5.57;;;2.40;;
41927;SDS011;27616;51.420;6.788;2023-02-28T16:17:34;5.00;;;2.73;;
41927;SDS011;27616;51.420;6.788;2023-02-28T16:20:05;4.60;;;2.78;;
41927;SDS011;27616;51.420;6.788;2023-02-28T16:22:42;5.72;;;2.50;;
41927;SDS011;27616;51.420;6.788;2023-02-28T16:25:11;6.23;;;2.47;;
41927;SDS011;27616;51.420;6.788;2023-02-28T16:27:42;5.37;;;2.40;;
41927;SDS011;27616;51.420;6.788;2023-02-28T16:30:18;6.10;;;2.50;;
41927;SDS011;27616;51.420;6.788;2023-02-28T16:32:49;5.40;;;2.90;;
41927;SDS011;27616;51.420;6.788;2023-02-28T16:35:16;4.57;;;2.00;;
41927;SDS011;27616;51.420;6.788;2023-02-28T16:37:43;3.67;;;2.20;;
41927;SDS011;27616;51.420;6.788;2023-02-28T16:40:13;5.57;;;2.90;;
41927;SDS011;27616;51.420;6.788;2023-02-28T16:42:40;5.00;;;2.60;;
41927;SDS011;27616;51.420;6.788;2023-02-28T16:45:06;7.23;;;2.77;;
41927;SDS011;27616;51.420;6.788;2023-02-28T16:47:48;5.30;;;3.10;;
41927;SDS011;27616;51.420;6.788;2023-02-28T16:50:15;6.10;;;2.87;;
41927;SDS011;27616;51.420;6.788;2023-02-28T16:52:45;4.63;;;2.50;;
41927;SDS011;27616;51.420;6.788;2023-02-28T16:55:11;5.00;;;2.70;;
41927;SDS011;27616;51.420;6.788;2023-02-28T16:57:38;5.23;;;2.77;;
41927;SDS011;27616;51.420;6.788;2023-02-28T17:00:05;6.13;;;2.93;;
41927;SDS011;27616;51.420;6.788;2023-02-28T17:02:33;5.90;;;2.90;;
41927;SDS011;27616;51.420;6.788;2023-02-28T17:04:59;5.13;;;2.60;;
41927;SDS011;27616;51.420;6.788;2023-02-28T17:07:25;4.17;;;2.50;;
41927;SDS011;27616;51.420;6.788;2023-02-28T17:09:51;7.03;;;3.60;;
41927;SDS011;27616;51.420;6.788;2023-02-28T17:12:17;5.87;;;2.70;;
41927;SDS011;27616;51.420;6.788;2023-02-28T17:14:42;5.27;;;2.70;;
41927;SDS011;27616;51.420;6.788;2023-02-28T17:17:09;4.33;;;2.60;;
41927;SDS011;27616;51.420;6.788;2023-02-28T17:19:45;5.47;;;2.67;;
41927;SDS011;27616;51.420;6.788;2023-02-28T17:22:11;6.70;;;2.70;;
41927;SDS011;27616;51.420;6.788;2023-02-28T17:24:37;7.17;;;2.90;;
41927;SDS011;27616;51.420;6.788;2023-02-28T17:27:03;6.80;;;2.83;;
41927;SDS011;27616;51.420;6.788;2023-02-28T17:29:29;8.27;;;3.40;;
41927;SDS011;27616;51.420;6.788;2023-02-28T17:31:55;7.27;;;3.43;;
41927;SDS011;27616;51.420;6.788;2023-02-28T17:34:20;6.70;;;2.60;;
41927;SDS011;27616;51.420;6.788;2023-02-28T17:36:47;7.53;;;2.93;;